This is the latest recevied weather packets stored in our database for station/object ON5MM-5. If no packets are shown the sender has not sent any weather packets the latest 10 day(s).
| Time | Temp. | Humidity | Pressure | Rain* | Wind** | Luminosity | Snow |
|---|---|---|---|---|---|---|---|
| 1777280702 | 15° C | 40% | 1024.7 hPa | 0 mm | 1.34 m/s, ° | - | - |
| 1777280403 | 15° C | 41% | 1024.6 hPa | 0 mm | 1.79 m/s, ° | - | - |
| 1777280102 | 15° C | 41% | 1024.8 hPa | 0 mm | 0.89 m/s, ° | - | - |
| 1777279803 | 15° C | 42% | 1024.8 hPa | 0 mm | 1.34 m/s, ° | - | - |
| 1777279503 | 15° C | 43% | 1024.8 hPa | 0 mm | 0.45 m/s, ° | - | - |
| 1777279202 | 15° C | 45% | 1024.8 hPa | 0 mm | 0 m/s | - | - |
| 1777278902 | 14.44° C | 44% | 1024.8 hPa | 0 mm | 1.34 m/s, ° | - | - |
| 1777278603 | 15° C | 47% | 1024.9 hPa | 0 mm | 0 m/s | - | - |
| 1777278302 | 14.44° C | 47% | 1024.8 hPa | 0 mm | 0 m/s | - | - |
| 1777278003 | 13.89° C | 48% | 1024.9 hPa | 0 mm | 0.89 m/s, ° | - | - |
| 1777277703 | 13.89° C | 48% | 1024.9 hPa | 0 mm | 0 m/s | - | - |
| 1777277402 | 13.33° C | 49% | 1025 hPa | 0 mm | 0 m/s | - | - |
| 1777277102 | 13.33° C | 49% | 1025 hPa | 0 mm | 0 m/s | - | - |
| 1777276802 | 12.78° C | 51% | 1025 hPa | 0 mm | 0 m/s | - | - |
| 1777276502 | 12.78° C | 51% | 1025.1 hPa | 0 mm | 0.45 m/s, ° | - | - |
| 1777276202 | 11.67° C | 52% | 1025.1 hPa | 0 mm | 0.89 m/s, ° | - | - |
| 1777275903 | 11.67° C | 53% | 1025.1 hPa | 0 mm | 0.45 m/s, ° | - | - |
| 1777275603 | 11.67° C | 52% | 1025.1 hPa | 0 mm | 0 m/s | - | - |
| 1777275302 | 11.67° C | 53% | 1025.1 hPa | 0 mm | 0.45 m/s, ° | - | - |
| 1777275002 | 11.67° C | 54% | 1025 hPa | 0 mm | 0 m/s | - | - |
| 1777274703 | 11.11° C | 54% | 1025 hPa | 0 mm | 0 m/s | - | - |
| 1777274403 | 11.11° C | 56% | 1025 hPa | 0 mm | 0 m/s | - | - |
| 1777274102 | 11.11° C | 56% | 1025 hPa | 0 mm | 0 m/s | - | - |
| 1777273803 | 10.56° C | 56% | 1025.1 hPa | 0 mm | 0 m/s | - | - |
| 1777273503 | 10.56° C | 56% | 1025.1 hPa | 0 mm | 0 m/s | - | - |
* Rain latest hour (hover to see other rain measurements)
** Current wind speed in m/s (hover to see current wind gust speed)